createdAt,value
2018-10-11T00:00:54.284Z,21.23
2018-10-11T00:04:57.659Z,20.90
2018-10-11T00:09:01.019Z,22.13
2018-10-11T00:13:04.944Z,22.50
2018-10-11T00:17:08.364Z,22.10
2018-10-11T00:21:11.753Z,21.93
2018-10-11T00:25:15.156Z,22.70
2018-10-11T00:29:18.530Z,21.57
2018-10-11T00:33:21.900Z,22.70
2018-10-11T00:37:25.247Z,22.63
2018-10-11T00:41:28.616Z,21.77
2018-10-11T00:45:32.027Z,22.77
2018-10-11T00:49:35.464Z,22.73
2018-10-11T00:53:38.864Z,22.90
2018-10-11T00:57:42.200Z,21.50
2018-10-11T01:01:45.574Z,22.37
2018-10-11T01:05:48.959Z,23.07
2018-10-11T01:09:52.358Z,22.03
2018-10-11T01:13:55.785Z,23.40
2018-10-11T01:17:59.163Z,22.70
2018-10-11T01:22:02.523Z,23.13
2018-10-11T01:26:06.002Z,23.07
2018-10-11T01:30:09.466Z,22.27
2018-10-11T01:34:12.810Z,23.60
2018-10-11T01:38:19.055Z,23.87
2018-10-11T01:42:22.457Z,22.73
2018-10-11T01:46:25.820Z,23.70
2018-10-11T01:50:29.236Z,23.87
2018-10-11T01:54:32.611Z,23.90
2018-10-11T01:58:35.959Z,25.57
2018-10-11T02:02:39.338Z,23.40
2018-10-11T02:06:42.728Z,25.10
2018-10-11T02:10:46.121Z,25.87
2018-10-11T02:14:49.703Z,25.33
2018-10-11T02:18:53.065Z,25.10
2018-10-11T02:22:56.597Z,23.57
2018-10-11T02:27:00.021Z,23.83
2018-10-11T02:31:03.403Z,24.40
2018-10-11T02:35:06.776Z,25.97
2018-10-11T02:39:10.956Z,24.10
2018-10-11T02:43:14.349Z,24.47
2018-10-11T02:47:17.742Z,23.63
2018-10-11T02:51:21.109Z,25.50
2018-10-11T02:55:25.838Z,25.17
2018-10-11T02:59:32.701Z,25.30
2018-10-11T03:03:36.124Z,23.07
2018-10-11T03:07:39.583Z,20.73
2018-10-11T03:11:42.980Z,23.97
2018-10-11T03:15:46.441Z,25.30
2018-10-11T03:19:49.802Z,26.50
2018-10-11T03:23:53.179Z,23.73
2018-10-11T03:27:56.572Z,25.20
2018-10-11T03:31:59.956Z,26.20
2018-10-11T03:36:03.370Z,26.63
2018-10-11T03:40:06.972Z,26.13
2018-10-11T03:44:10.381Z,26.20
2018-10-11T03:48:13.747Z,27.40
2018-10-11T03:52:17.140Z,26.80
2018-10-11T03:56:20.529Z,26.90
2018-10-11T04:00:24.103Z,26.57
2018-10-11T04:04:27.494Z,25.27
2018-10-11T04:08:30.876Z,24.03
2018-10-11T04:12:34.244Z,24.70
2018-10-11T04:16:37.644Z,27.90
2018-10-11T04:20:41.046Z,26.47
2018-10-11T04:24:44.456Z,27.50
2018-10-11T04:28:47.839Z,29.20
2018-10-11T04:32:51.244Z,27.90
2018-10-11T04:36:54.655Z,26.90
2018-10-11T04:40:58.041Z,27.77
2018-10-11T04:45:01.411Z,28.60
2018-10-11T04:49:04.803Z,28.07
2018-10-11T04:53:08.174Z,28.57
2018-10-11T04:57:11.543Z,25.73
2018-10-11T05:01:15.009Z,27.30
2018-10-11T05:05:18.424Z,31.53
2018-10-11T05:09:21.764Z,30.43
2018-10-11T05:13:58.603Z,31.43
2018-10-11T05:18:02.229Z,29.37
2018-10-11T05:22:05.649Z,27.80
2018-10-11T05:26:09.034Z,27.57
2018-10-11T05:30:12.452Z,26.87
2018-10-11T05:34:16.414Z,27.07
2018-10-11T05:38:20.268Z,29.73
2018-10-11T05:42:24.153Z,32.00
2018-10-11T05:46:29.934Z,32.23
2018-10-11T05:50:33.784Z,31.63
2018-10-11T05:54:37.268Z,30.40
2018-10-11T05:58:40.701Z,31.83
2018-10-11T06:02:52.671Z,29.47
2018-10-11T06:06:56.244Z,29.90
2018-10-11T06:10:59.680Z,30.57
2018-10-11T06:15:03.165Z,30.77
2018-10-11T06:19:06.747Z,30.87
2018-10-11T06:23:10.208Z,32.20
2018-10-11T06:27:13.684Z,31.10
2018-10-11T06:31:17.244Z,32.43
2018-10-11T06:35:20.712Z,33.07
2018-10-11T06:39:24.165Z,30.87
2018-10-11T06:43:27.607Z,31.57
2018-10-11T06:47:31.835Z,33.33
2018-10-11T06:51:35.941Z,34.00
2018-10-11T06:55:39.401Z,34.10
2018-10-11T06:59:42.797Z,32.70
2018-10-11T07:03:46.259Z,33.30
2018-10-11T07:07:52.599Z,31.13
2018-10-11T07:11:55.952Z,27.67
2018-10-11T07:15:59.382Z,27.80
2018-10-11T07:20:02.812Z,26.90
2018-10-11T07:24:06.223Z,27.83
2018-10-11T07:28:09.634Z,25.53
2018-10-11T07:32:13.031Z,26.93
2018-10-11T07:36:16.474Z,26.37
2018-10-11T07:40:22.994Z,25.33
2018-10-11T07:44:26.681Z,25.37
2018-10-11T07:48:30.175Z,23.33
2018-10-11T07:52:33.630Z,23.07
2018-10-11T07:56:37.049Z,23.27
2018-10-11T08:00:40.500Z,22.70
2018-10-11T08:04:43.991Z,22.67
2018-10-11T08:08:47.434Z,20.33
2018-10-11T08:12:50.831Z,17.67
2018-10-11T08:16:54.343Z,17.40
2018-10-11T08:20:57.737Z,16.73
2018-10-11T08:25:01.240Z,17.13
2018-10-11T08:29:04.793Z,16.00
2018-10-11T08:33:08.241Z,14.93
2018-10-11T08:37:11.715Z,13.27
2018-10-11T08:41:15.141Z,12.47
2018-10-11T08:45:18.578Z,12.60
2018-10-11T08:49:22.004Z,12.03
2018-10-11T08:53:25.419Z,12.40
2018-10-11T08:57:28.851Z,12.97
2018-10-11T09:01:32.285Z,12.23
2018-10-11T09:05:35.709Z,11.80
2018-10-11T09:09:39.230Z,11.67
2018-10-11T09:13:42.583Z,11.97
2018-10-11T09:17:46.028Z,11.50
2018-10-11T09:21:49.478Z,11.88
2018-10-11T09:25:52.882Z,12.20
2018-10-11T09:29:57.638Z,11.70
2018-10-11T09:34:01.110Z,12.60
2018-10-11T09:38:04.601Z,11.60
2018-10-11T09:42:08.133Z,11.60
2018-10-11T09:46:11.748Z,11.45
2018-10-11T09:50:15.157Z,11.07
2018-10-11T09:54:18.624Z,12.13
2018-10-11T09:58:22.086Z,12.07
2018-10-11T10:02:26.246Z,11.85
2018-10-11T10:06:29.645Z,11.67
2018-10-11T10:10:33.064Z,11.73
2018-10-11T10:14:36.501Z,11.70
2018-10-11T10:18:39.904Z,12.33
2018-10-11T10:22:43.341Z,12.97
2018-10-11T10:26:47.219Z,12.37
2018-10-11T10:30:53.709Z,11.90
2018-10-11T10:34:57.082Z,12.10
2018-10-11T10:39:00.296Z,11.70
2018-10-11T10:43:03.472Z,11.43
2018-10-11T10:47:06.689Z,11.33
2018-10-11T10:51:10.139Z,11.85
2018-10-11T10:55:13.524Z,10.53
2018-10-11T10:59:17.045Z,11.80
2018-10-11T11:03:20.472Z,11.40
2018-10-11T11:07:23.876Z,10.90
2018-10-11T11:11:27.299Z,10.60
2018-10-11T11:15:30.717Z,10.88
2018-10-11T11:19:34.214Z,10.70
2018-10-11T11:23:37.819Z,11.15
2018-10-11T11:27:42.043Z,11.05
2018-10-11T11:31:45.415Z,11.60
2018-10-11T11:35:48.813Z,10.78
2018-10-11T11:39:53.724Z,10.63
2018-10-11T11:43:58.401Z,9.98
2018-10-11T11:48:03.299Z,10.88
2018-10-11T11:52:07.812Z,10.95
2018-10-11T11:56:11.661Z,11.03
2018-10-11T12:00:15.146Z,10.95
2018-10-11T12:04:18.610Z,10.90
2018-10-11T12:08:22.090Z,10.50
2018-10-11T12:12:50.669Z,9.73
2018-10-11T12:16:54.095Z,10.72
2018-10-11T12:20:57.526Z,9.75
2018-10-11T12:25:01.024Z,10.08
2018-10-11T12:29:04.486Z,9.88
2018-10-11T12:33:08.711Z,10.48
2018-10-11T12:37:12.126Z,9.65
2018-10-11T12:41:15.527Z,9.35
2018-10-11T12:45:19.316Z,9.95
2018-10-11T12:49:22.805Z,9.48
2018-10-11T12:53:26.141Z,9.78
2018-10-11T12:57:29.668Z,9.75
2018-10-11T13:01:33.094Z,10.43
2018-10-11T13:05:40.933Z,10.58
2018-10-11T13:09:44.385Z,9.95
2018-10-11T13:13:51.173Z,9.68
2018-10-11T13:17:51.244Z,9.68
2018-10-11T13:21:54.659Z,10.68
2018-10-11T13:25:58.092Z,10.93
2018-10-11T13:30:01.615Z,10.80
2018-10-11T13:34:05.013Z,9.95
2018-10-11T13:38:08.684Z,9.73
2018-10-11T13:42:12.457Z,9.70
2018-10-11T13:46:15.846Z,9.55
2018-10-11T13:50:19.239Z,9.57
2018-10-11T13:54:22.713Z,9.63
2018-10-11T13:58:26.117Z,10.78
2018-10-11T14:02:29.538Z,10.50
2018-10-11T14:06:32.973Z,10.20
2018-10-11T14:10:36.426Z,9.93
2018-10-11T14:14:39.843Z,9.93
2018-10-11T14:18:43.245Z,10.30
2018-10-11T14:22:46.661Z,10.53
2018-10-11T14:26:50.024Z,10.70
2018-10-11T14:30:53.508Z,9.83
2018-10-11T14:34:57.036Z,9.53
2018-10-11T14:39:00.460Z,10.53
2018-10-11T14:43:03.881Z,9.80
2018-10-11T14:47:07.985Z,9.33
2018-10-11T14:51:11.819Z,9.78
2018-10-11T14:55:15.708Z,9.20
2018-10-11T14:59:19.213Z,9.83
2018-10-11T15:03:22.829Z,10.18
2018-10-11T15:07:26.140Z,9.73
2018-10-11T15:11:29.775Z,9.35
2018-10-11T15:15:33.058Z,9.50
2018-10-11T15:19:36.488Z,8.90
2018-10-11T15:23:40.047Z,9.83
2018-10-11T15:27:43.462Z,9.45
2018-10-11T15:31:46.909Z,9.25
2018-10-11T15:35:50.411Z,9.20
2018-10-11T15:39:53.841Z,9.43
2018-10-11T15:43:57.368Z,8.90
2018-10-11T15:48:00.818Z,9.25
2018-10-11T15:52:04.248Z,8.75
2018-10-11T15:56:08.003Z,9.00
2018-10-11T16:00:11.418Z,9.90
2018-10-11T16:04:14.877Z,9.13
2018-10-11T16:08:18.767Z,9.25
2018-10-11T16:12:22.551Z,9.33
2018-10-11T16:16:26.086Z,9.17
2018-10-11T16:20:29.509Z,9.27
2018-10-11T16:24:33.196Z,9.40
2018-10-11T16:28:38.587Z,9.10
2018-10-11T16:32:42.881Z,9.23
2018-10-11T16:36:46.367Z,9.63
2018-10-11T16:40:49.845Z,8.80
2018-10-11T16:44:53.381Z,9.47
2018-10-11T16:48:56.995Z,9.57
2018-10-11T16:53:01.043Z,9.33
2018-10-11T16:57:04.424Z,9.20
2018-10-11T17:01:07.970Z,10.13
2018-10-11T17:05:11.367Z,10.03
2018-10-11T17:09:14.776Z,9.90
2018-10-11T17:13:18.137Z,10.13
2018-10-11T17:17:21.532Z,10.43
2018-10-11T17:21:24.951Z,9.90
2018-10-11T17:25:28.343Z,10.23
2018-10-11T17:29:31.789Z,10.13
2018-10-11T17:33:35.167Z,10.40
2018-10-11T17:37:44.901Z,10.70
2018-10-11T17:41:48.284Z,11.07
2018-10-11T17:45:51.671Z,11.50
2018-10-11T17:49:55.064Z,10.50
2018-10-11T17:53:58.474Z,11.03
2018-10-11T17:58:01.877Z,11.20
2018-10-11T18:02:05.244Z,11.17
2018-10-11T18:06:08.619Z,11.50
2018-10-11T18:10:12.140Z,11.33
2018-10-11T18:14:15.388Z,11.50
2018-10-11T18:18:18.793Z,11.77
2018-10-11T18:22:23.199Z,11.37
2018-10-11T18:26:26.663Z,11.60
2018-10-11T18:30:30.058Z,11.67
2018-10-11T18:34:33.419Z,12.10
2018-10-11T18:38:36.816Z,11.37
2018-10-11T18:42:40.416Z,11.13
2018-10-11T18:46:44.663Z,11.37
2018-10-11T18:50:49.011Z,11.43
2018-10-11T18:54:52.424Z,11.43
2018-10-11T18:58:55.793Z,11.93
2018-10-11T19:02:59.188Z,12.80
2018-10-11T19:07:02.570Z,12.73
2018-10-11T19:11:05.947Z,12.43
2018-10-11T19:15:09.473Z,12.77
2018-10-11T19:19:12.873Z,12.10
2018-10-11T19:23:16.272Z,11.53
2018-10-11T19:27:19.673Z,12.27
2018-10-11T19:31:23.061Z,12.77
2018-10-11T19:35:26.505Z,13.23
2018-10-11T19:39:30.201Z,13.00
2018-10-11T19:43:33.659Z,12.80
2018-10-11T19:47:37.126Z,12.87
2018-10-11T19:51:40.608Z,13.30
2018-10-11T19:55:44.081Z,12.33
2018-10-11T19:59:47.590Z,12.80
2018-10-11T20:03:51.122Z,12.37
2018-10-11T20:07:54.666Z,13.30
2018-10-11T20:11:58.115Z,12.13
2018-10-11T20:16:01.577Z,12.70
2018-10-11T20:20:05.423Z,13.27
2018-10-11T20:24:09.769Z,13.00
2018-10-11T20:28:13.219Z,14.93
2018-10-11T20:32:17.300Z,13.27
2018-10-11T20:36:20.836Z,14.63
2018-10-11T20:40:24.229Z,16.17
2018-10-11T20:44:28.412Z,16.60
2018-10-11T20:48:31.904Z,14.93
2018-10-11T20:52:35.364Z,14.50
2018-10-11T20:56:38.817Z,15.67
2018-10-11T21:00:42.388Z,16.17
2018-10-11T21:04:50.029Z,14.80
2018-10-11T21:08:53.428Z,14.90
2018-10-11T21:12:56.832Z,14.97
2018-10-11T21:17:00.239Z,15.27
2018-10-11T21:21:03.608Z,15.60
2018-10-11T21:25:07.129Z,14.33
2018-10-11T21:29:10.568Z,14.93
2018-10-11T21:33:14.034Z,14.80
2018-10-11T21:37:17.429Z,13.73
2018-10-11T21:41:20.795Z,14.37
2018-10-11T21:45:24.257Z,14.70
2018-10-11T21:49:27.701Z,14.07
2018-10-11T21:53:31.113Z,14.13
2018-10-11T21:57:34.558Z,14.77
2018-10-11T22:01:38.227Z,13.67
2018-10-11T22:05:41.842Z,13.40
2018-10-11T22:09:45.280Z,13.43
2018-10-11T22:13:48.807Z,13.53
2018-10-11T22:17:53.548Z,12.77
2018-10-11T22:26:06.509Z,13.53
2018-10-11T22:30:14.202Z,13.07
2018-10-11T22:34:18.558Z,13.37
2018-10-11T22:38:23.576Z,13.13
2018-10-11T22:42:27.043Z,12.27
2018-10-11T22:46:30.636Z,12.83
2018-10-11T22:50:34.056Z,12.73
2018-10-11T22:54:37.516Z,13.37
2018-10-11T22:58:41.253Z,13.63
2018-10-11T23:02:44.645Z,13.63
2018-10-11T23:06:48.091Z,13.17
2018-10-11T23:10:53.484Z,12.80
2018-10-11T23:14:57.049Z,13.70
2018-10-11T23:19:00.484Z,13.57
2018-10-11T23:23:04.109Z,13.03
2018-10-11T23:27:07.543Z,12.40
2018-10-11T23:31:11.851Z,13.13
2018-10-11T23:35:15.450Z,13.00
2018-10-11T23:39:19.287Z,11.80
2018-10-11T23:43:34.911Z,12.77
2018-10-11T23:47:38.618Z,13.10
2018-10-11T23:51:42.381Z,12.70
2018-10-11T23:55:45.988Z,12.73
2018-10-11T23:59:49.631Z,12.63
